Time;durP1;ratioP1;P1;durP2;ratioP2;P2;SDS_P1;SDS_P2;PMS_P1;PMS_P2;Temp;Humidity;BMP_temperature;BMP_pressure;BME280_temperature;BME280_humidity;BME280_pressure;Samples;Min_cycle;Max_cycle;Signal;HPM_P1;HPM_P2
2022/08/28 00:01:06;;;;;;;13.30;6.87;;;19.00;99.90;;;;;;5072366;28;20203;-81
2022/08/28 00:03:34;;;;;;;7.07;6.47;;;18.80;99.90;;;;;;5072368;28;20203;-80
2022/08/28 00:06:00;;;;;;;7.40;6.80;;;18.80;99.90;;;;;;5072760;28;20704;-80
2022/08/28 00:08:26;;;;;;;6.80;6.30;;;18.90;99.90;;;;;;5074797;28;20232;-80
2022/08/28 00:10:52;;;;;;;6.60;5.93;;;19.00;99.90;;;;;;5072132;28;20182;-79
2022/08/28 00:13:21;;;;;;;6.27;5.77;;;19.00;99.90;;;;;;5074060;28;20224;-80
2022/08/28 00:15:49;;;;;;;7.10;6.33;;;19.00;99.90;;;;;;5097219;28;20235;-80
2022/08/28 00:18:16;;;;;;;8.00;6.43;;;19.10;99.90;;;;;;5082083;28;20202;-80
2022/08/28 00:20:43;;;;;;;6.93;6.43;;;19.20;99.90;;;;;;5071561;28;20295;-80
2022/08/28 00:23:09;;;;;;;6.77;6.27;;;19.20;99.90;;;;;;5072101;28;20224;-81
2022/08/28 00:25:35;;;;;;;8.03;6.20;;;19.20;99.90;;;;;;5071945;28;20262;-80
2022/08/28 00:28:05;;;;;;;7.70;6.27;;;19.20;99.90;;;;;;5071981;28;20179;-80
2022/08/28 00:30:40;;;;;;;10.07;6.33;;;19.20;99.90;;;;;;5072135;28;20205;-80
2022/08/28 00:33:14;;;;;;;7.43;6.73;;;19.10;99.90;;;;;;5071862;28;20162;-80
2022/08/28 00:35:41;;;;;;;7.27;6.50;;;19.10;99.90;;;;;;5071849;28;20167;-80
2022/08/28 00:38:11;;;;;;;6.83;6.03;;;19.10;99.90;;;;;;5071540;28;20171;-80
2022/08/28 00:40:38;;;;;;;6.50;6.00;;;19.10;99.90;;;;;;5071942;28;20250;-80
2022/08/28 00:43:06;;;;;;;7.23;6.60;;;19.00;99.90;;;;;;5071372;28;20206;-80
2022/08/28 00:45:32;;;;;;;7.40;6.60;;;19.00;99.90;;;;;;5071813;28;20175;-81
2022/08/28 00:47:58;;;;;;;7.27;6.57;;;19.00;99.90;;;;;;5071508;28;20194;-80
2022/08/28 00:52:03;;;;;;;6.47;5.87;;;19.00;99.90;;;;;;5069919;28;20187;-80
2022/08/28 00:53:15;;;;;;;6.63;6.13;;;19.10;99.90;;;;;;5071273;28;20260;-81
2022/08/28 00:55:41;;;;;;;6.93;6.43;;;19.00;99.90;;;;;;5053575;28;20301;-80
2022/08/28 00:58:10;;;;;;;7.57;6.87;;;19.00;99.90;;;;;;5071028;28;20219;-80
2022/08/28 01:00:38;;;;;;;6.90;6.30;;;19.00;99.90;;;;;;5070991;28;20191;-80
2022/08/28 01:03:05;;;;;;;7.13;6.53;;;19.00;99.90;;;;;;5071157;28;20313;-80
2022/08/28 01:05:33;;;;;;;7.30;6.57;;;18.90;99.90;;;;;;5071139;28;20175;-81
2022/08/28 01:08:00;;;;;;;6.60;6.00;;;18.90;99.90;;;;;;5071161;28;20163;-81
2022/08/28 01:10:29;;;;;;;7.10;6.50;;;18.90;99.90;;;;;;5071021;28;20163;-80
2022/08/28 01:12:56;;;;;;;6.97;6.33;;;18.90;99.90;;;;;;5071256;28;20171;-80
2022/08/28 01:15:27;;;;;;;7.40;6.70;;;18.90;99.90;;;;;;5070843;28;20203;-80
2022/08/28 01:17:58;;;;;;;7.60;6.93;;;18.90;99.90;;;;;;5070834;28;20272;-80
2022/08/28 01:20:28;;;;;;;7.30;6.60;;;19.00;99.90;;;;;;5069750;28;20772;-81
2022/08/28 01:23:00;;;;;;;7.70;7.00;;;19.00;99.90;;;;;;5070623;28;20293;-80
2022/08/28 01:25:32;;;;;;;9.77;6.70;;;18.90;99.90;;;;;;5070808;28;20564;-82
2022/08/28 01:27:59;;;;;;;7.13;6.57;;;18.90;99.90;;;;;;5070663;28;20152;-80
2022/08/28 01:30:25;;;;;;;7.60;7.00;;;18.80;99.90;;;;;;5070508;28;20273;-80
2022/08/28 01:32:54;;;;;;;7.53;6.67;;;18.80;99.90;;;;;;5070657;28;20175;-80
2022/08/28 01:35:27;;;;;;;7.40;6.70;;;18.80;99.90;;;;;;5069108;28;20207;-80
2022/08/28 01:37:54;;;;;;;7.50;6.80;;;18.80;99.90;;;;;;5070506;28;20306;-80
2022/08/28 01:40:35;;;;;;;7.43;6.73;;;18.80;99.90;;;;;;5070434;28;20191;-80
2022/08/28 01:43:14;;;;;;;7.63;7.00;;;18.80;99.90;;;;;;5070469;28;20187;-81
2022/08/28 01:45:43;;;;;;;7.33;6.77;;;18.80;99.90;;;;;;5069013;28;20539;-80
2022/08/28 01:48:10;;;;;;;8.60;6.70;;;18.80;99.90;;;;;;5069016;28;20171;-80
2022/08/28 01:50:36;;;;;;;8.07;7.37;;;18.90;99.90;;;;;;5070138;28;20236;-80
2022/08/28 01:53:04;;;;;;;7.17;6.53;;;18.80;99.90;;;;;;5085108;28;20163;-80
2022/08/28 01:55:34;;;;;;;7.23;6.63;;;18.80;99.90;;;;;;5088815;28;20177;-80
2022/08/28 01:58:02;;;;;;;6.90;6.40;;;18.80;99.90;;;;;;5073888;28;20272;-80
2022/08/28 02:00:28;;;;;;;6.80;6.20;;;18.80;99.90;;;;;;5070391;28;20213;-80
2022/08/28 02:02:56;;;;;;;7.17;6.57;;;18.80;99.90;;;;;;5069116;28;20197;-81
2022/08/28 02:05:29;;;;;;;7.47;6.90;;;18.80;99.90;;;;;;5070132;28;20700;-80
2022/08/28 02:07:56;;;;;;;7.50;6.80;;;18.80;99.90;;;;;;5069956;28;20167;-80
2022/08/28 02:10:23;;;;;;;7.23;6.53;;;18.80;99.90;;;;;;5070286;28;20806;-80
2022/08/28 02:12:51;;;;;;;6.93;6.33;;;18.80;99.90;;;;;;5069858;28;20170;-81
2022/08/28 02:15:17;;;;;;;7.73;6.50;;;18.90;99.90;;;;;;5068600;28;20179;-81
2022/08/28 02:17:43;;;;;;;7.00;6.40;;;18.80;99.90;;;;;;5069766;28;20179;-80
2022/08/28 02:20:09;;;;;;;7.97;7.17;;;18.70;99.90;;;;;;5069825;28;20225;-80
2022/08/28 02:22:36;;;;;;;8.33;7.40;;;18.80;99.90;;;;;;5069765;28;20220;-80
2022/08/28 02:25:03;;;;;;;7.23;6.63;;;18.80;99.90;;;;;;5069911;28;20279;-81
2022/08/28 02:27:29;;;;;;;8.00;7.20;;;18.80;99.90;;;;;;5070317;28;20199;-81
2022/08/28 02:29:57;;;;;;;7.93;7.30;;;18.80;99.90;;;;;;5069903;28;20256;-80
2022/08/28 02:32:24;;;;;;;7.60;6.90;;;18.80;99.90;;;;;;5069709;28;20605;-80
2022/08/28 02:34:50;;;;;;;8.13;7.33;;;18.70;99.90;;;;;;5069801;28;20262;-80
2022/08/28 02:37:16;;;;;;;8.63;7.83;;;18.70;99.90;;;;;;5069745;28;20627;-80
2022/08/28 02:39:43;;;;;;;9.00;7.10;;;18.80;99.90;;;;;;5069658;28;20239;-80
2022/08/28 02:42:09;;;;;;;8.13;7.33;;;18.80;99.90;;;;;;5069926;28;20535;-80
2022/08/28 02:44:35;;;;;;;8.13;7.47;;;18.80;99.90;;;;;;5069744;28;20673;-80
2022/08/28 02:47:02;;;;;;;7.87;7.37;;;18.80;99.90;;;;;;5069785;28;20731;-80
2022/08/28 02:49:29;;;;;;;8.33;7.63;;;18.80;99.90;;;;;;5068498;28;20175;-80
2022/08/28 02:51:56;;;;;;;9.60;8.33;;;18.80;99.90;;;;;;5068317;28;20175;-81
2022/08/28 02:54:23;;;;;;;7.93;7.23;;;18.80;99.90;;;;;;5069531;28;20206;-80
2022/08/28 02:56:49;;;;;;;9.37;8.03;;;18.90;99.90;;;;;;5069319;28;20211;-80
2022/08/28 02:59:14;;;;;;;9.27;7.60;;;18.80;99.90;;;;;;5069493;28;20178;-80
2022/08/28 03:01:40;;;;;;;8.97;7.53;;;18.80;99.90;;;;;;5069455;28;20199;-80
2022/08/28 03:04:06;;;;;;;8.50;7.80;;;18.70;99.90;;;;;;5069306;28;20195;-80
2022/08/28 03:06:32;;;;;;;8.33;7.63;;;18.70;99.90;;;;;;5072750;28;20230;-80
2022/08/28 03:08:58;;;;;;;7.77;7.17;;;18.70;99.90;;;;;;5073459;28;20240;-80
2022/08/28 03:11:25;;;;;;;8.27;7.57;;;18.70;99.90;;;;;;5073273;28;20175;-80
2022/08/28 03:13:52;;;;;;;8.07;7.47;;;18.60;99.90;;;;;;5073325;28;20305;-80
2022/08/28 03:16:18;;;;;;;8.77;8.07;;;18.60;99.90;;;;;;5073254;28;20175;-80
2022/08/28 03:18:44;;;;;;;9.37;8.10;;;18.50;99.90;;;;;;5073098;28;20182;-80
2022/08/28 03:21:10;;;;;;;9.17;8.37;;;18.40;99.90;;;;;;5073340;28;20202;-80
2022/08/28 03:23:36;;;;;;;10.67;8.17;;;18.30;99.90;;;;;;5072899;28;20780;-80
2022/08/28 03:26:06;;;;;;;9.37;8.17;;;18.40;99.90;;;;;;5073018;28;20175;-80
2022/08/28 03:28:41;;;;;;;8.97;8.17;;;18.30;99.90;;;;;;5073156;28;20186;-80
2022/08/28 03:31:08;;;;;;;9.20;8.40;;;18.30;99.90;;;;;;5087344;28;20222;-80
2022/08/28 03:33:35;;;;;;;9.97;8.90;;;18.30;99.90;;;;;;5090871;28;20202;-80
2022/08/28 03:36:01;;;;;;;8.93;8.23;;;18.20;99.90;;;;;;5077043;28;20253;-80
2022/08/28 03:38:27;;;;;;;10.07;8.90;;;18.20;99.90;;;;;;5073456;28;20183;-80
2022/08/28 03:40:53;;;;;;;9.03;8.13;;;18.30;99.90;;;;;;5071371;28;20222;-80
2022/08/28 03:43:21;;;;;;;9.07;8.17;;;18.20;99.90;;;;;;5072645;28;20183;-80
2022/08/28 03:45:59;;;;;;;8.70;7.90;;;18.20;99.90;;;;;;5072614;28;20654;-80
2022/08/28 03:48:28;;;;;;;9.33;8.43;;;18.20;99.90;;;;;;5072642;28;20174;-80
2022/08/28 03:50:54;;;;;;;11.53;8.23;;;18.20;99.90;;;;;;5072693;28;20523;-80
2022/08/28 03:53:22;;;;;;;8.97;8.07;;;18.20;99.90;;;;;;5072776;28;20187;-80
2022/08/28 03:55:48;;;;;;;9.70;8.30;;;18.20;99.90;;;;;;5072374;28;20495;-80
2022/08/28 03:58:14;;;;;;;9.47;8.63;;;18.20;99.90;;;;;;5072119;28;20570;-80
2022/08/28 04:00:41;;;;;;;9.57;8.57;;;18.20;99.90;;;;;;5072294;28;20230;-80
2022/08/28 04:03:08;;;;;;;11.03;8.57;;;18.20;99.90;;;;;;5072234;28;20650;-80
2022/08/28 04:05:33;;;;;;;9.97;9.10;;;18.20;99.90;;;;;;5072183;28;20658;-81
2022/08/28 04:08:01;;;;;;;9.53;8.63;;;18.20;99.90;;;;;;5072209;28;20175;-80
2022/08/28 04:10:28;;;;;;;9.47;8.60;;;18.30;99.90;;;;;;5072135;28;20254;-80
2022/08/28 04:12:54;;;;;;;9.30;8.40;;;18.20;99.90;;;;;;5072232;28;20573;-79
2022/08/28 04:15:20;;;;;;;10.03;9.13;;;18.20;99.90;;;;;;5072377;28;20598;-80
2022/08/28 04:17:46;;;;;;;9.37;8.53;;;18.10;99.90;;;;;;5070846;28;20649;-80
2022/08/28 04:20:12;;;;;;;9.50;8.60;;;18.10;99.90;;;;;;5071968;28;20203;-80
2022/08/28 04:22:39;;;;;;;10.17;9.27;;;18.20;99.90;;;;;;5071957;28;20186;-80
2022/08/28 04:25:06;;;;;;;9.03;8.33;;;18.20;99.90;;;;;;5071557;28;20266;-80
2022/08/28 04:27:33;;;;;;;9.03;8.23;;;18.20;99.90;;;;;;5070690;28;20231;-80
2022/08/28 04:29:58;;;;;;;9.90;8.20;;;18.20;99.90;;;;;;5072149;28;20178;-81
2022/08/28 04:32:25;;;;;;;8.80;7.90;;;18.20;99.90;;;;;;5071871;28;20184;-81
2022/08/28 04:34:51;;;;;;;8.97;8.07;;;18.10;99.90;;;;;;5071751;28;20228;-80
2022/08/28 04:37:17;;;;;;;8.93;8.20;;;18.20;99.90;;;;;;5071575;28;20182;-80
2022/08/28 04:39:43;;;;;;;9.63;8.83;;;18.20;99.90;;;;;;5070314;28;20418;-80
2022/08/28 04:42:09;;;;;;;13.43;11.30;;;18.20;99.90;;;;;;5071406;28;20214;-80
2022/08/28 04:44:34;;;;;;;16.90;11.40;;;18.20;99.90;;;;;;5071502;28;20286;-80
2022/08/28 04:47:00;;;;;;;18.37;11.97;;;18.20;99.90;;;;;;5070067;28;20273;-80
2022/08/28 04:49:26;;;;;;;14.20;12.80;;;18.30;99.90;;;;;;5071383;28;20179;-81
2022/08/28 04:51:53;;;;;;;14.80;13.13;;;18.30;99.90;;;;;;5071492;28;20190;-80
2022/08/28 04:54:19;;;;;;;14.90;13.03;;;18.40;99.90;;;;;;5071242;28;20627;-80
2022/08/28 04:56:45;;;;;;;15.57;12.47;;;18.40;99.90;;;;;;5069874;28;20171;-79
2022/08/28 04:59:11;;;;;;;15.13;13.70;;;18.40;99.90;;;;;;5071307;28;20621;-80
2022/08/28 05:01:39;;;;;;;15.47;13.53;;;18.40;99.90;;;;;;5069703;28;20289;-79
2022/08/28 05:04:05;;;;;;;14.40;13.00;;;18.50;99.90;;;;;;5069973;28;20202;-80
2022/08/28 05:06:32;;;;;;;12.70;11.57;;;18.50;99.90;;;;;;5071321;28;20245;-80
2022/08/28 05:09:00;;;;;;;14.77;11.30;;;18.50;99.90;;;;;;5082529;28;20196;-80
2022/08/28 05:11:27;;;;;;;12.03;10.77;;;18.50;99.90;;;;;;5089687;28;20282;-80
2022/08/28 05:13:54;;;;;;;11.07;9.97;;;18.50;99.90;;;;;;5075878;28;20183;-81
2022/08/28 05:16:21;;;;;;;11.40;10.37;;;18.50;99.90;;;;;;5071421;28;20182;-80
2022/08/28 05:18:48;;;;;;;11.80;10.03;;;18.50;99.90;;;;;;5071089;28;20199;-80
2022/08/28 05:21:19;;;;;;;10.73;9.77;;;18.60;99.90;;;;;;5071069;28;20787;-80
2022/08/28 05:23:48;;;;;;;12.33;11.07;;;18.60;99.90;;;;;;5070805;28;20201;-80
2022/08/28 05:26:17;;;;;;;9.37;8.47;;;18.60;99.90;;;;;;5070893;28;20286;-80
2022/08/28 05:28:42;;;;;;;9.13;8.33;;;18.50;99.90;;;;;;5069171;28;20171;-80
2022/08/28 05:31:18;;;;;;;9.20;8.30;;;18.50;99.90;;;;;;5070477;28;20178;-80
2022/08/28 05:33:46;;;;;;;9.37;8.47;;;18.50;99.90;;;;;;5069316;28;20258;-81
2022/08/28 05:36:12;;;;;;;9.17;8.27;;;18.60;99.90;;;;;;5071132;28;20171;-81
2022/08/28 05:38:39;;;;;;;7.67;7.07;;;18.70;99.90;;;;;;5069480;28;20193;-81
2022/08/28 05:41:05;;;;;;;8.90;7.23;;;18.60;99.90;;;;;;5070791;28;20686;-80
2022/08/28 05:43:32;;;;;;;7.60;6.90;;;18.60;99.90;;;;;;5071157;28;20166;-80
2022/08/28 05:46:00;;;;;;;7.87;6.80;;;18.70;99.90;;;;;;5071115;28;20261;-80
2022/08/28 05:48:28;;;;;;;7.57;6.97;;;18.80;99.90;;;;;;5066824;28;20179;-79
2022/08/28 05:50:57;;;;;;;8.33;7.60;;;19.00;99.90;;;;;;5069711;28;20817;-79
2022/08/28 05:53:24;;;;;;;8.33;7.57;;;19.10;99.90;;;;;;5068981;28;20221;-80
2022/08/28 05:55:51;;;;;;;8.10;7.40;;;19.10;99.90;;;;;;5070432;28;20224;-79
2022/08/28 05:58:30;;;;;;;8.23;7.43;;;19.20;99.90;;;;;;5070132;28;20227;-80
2022/08/28 06:01:02;;;;;;;8.27;7.50;;;19.30;99.90;;;;;;5070535;28;20190;-80
2022/08/28 06:03:28;;;;;;;7.53;6.93;;;19.40;99.90;;;;;;5070208;28;20590;-80
2022/08/28 06:05:54;;;;;;;7.83;7.10;;;19.50;99.90;;;;;;5070183;28;20282;-80
2022/08/28 06:08:21;;;;;;;7.83;7.20;;;19.50;99.90;;;;;;5069920;28;20258;-80
2022/08/28 06:10:48;;;;;;;8.40;7.27;;;19.40;99.90;;;;;;5069985;28;20167;-79
2022/08/28 06:13:14;;;;;;;8.50;7.70;;;19.30;99.90;;;;;;5069221;28;20215;-80
2022/08/28 06:15:44;;;;;;;9.00;8.00;;;19.30;99.90;;;;;;5070335;28;20581;-80
2022/08/28 06:18:11;;;;;;;8.90;7.77;;;19.40;99.90;;;;;;5070176;28;20573;-80
2022/08/28 06:20:41;;;;;;;9.07;8.27;;;19.50;99.90;;;;;;5070014;28;20252;-80
2022/08/28 06:23:08;;;;;;;8.23;7.43;;;19.60;99.90;;;;;;5069774;28;20186;-80
2022/08/28 06:25:47;;;;;;;8.30;7.60;;;19.80;99.90;;;;;;5069591;28;20262;-80
2022/08/28 06:28:19;;;;;;;10.97;8.10;;;19.90;99.90;;;;;;5071293;28;20162;-81
2022/08/28 06:30:45;;;;;;;8.50;7.70;;;20.00;99.90;;;;;;5070144;28;20171;-81
2022/08/28 06:33:15;;;;;;;9.23;7.17;;;20.10;99.90;;;;;;5069987;28;20726;-82
2022/08/28 06:35:50;;;;;;;8.13;7.47;;;20.10;99.90;;;;;;5070164;28;20195;-81
2022/08/28 06:38:18;;;;;;;7.93;7.30;;;20.10;99.90;;;;;;5069869;28;20285;-81
2022/08/28 06:40:49;;;;;;;9.23;7.03;;;20.30;99.90;;;;;;5072049;28;20218;-81
2022/08/28 06:43:17;;;;;;;7.30;6.60;;;20.40;99.90;;;;;;5074128;28;20240;-81
2022/08/28 06:45:46;;;;;;;7.40;6.73;;;20.50;99.90;;;;;;5073014;28;20586;-80
2022/08/28 06:48:18;;;;;;;7.10;6.60;;;20.60;99.90;;;;;;5077038;28;20179;-81
2022/08/28 06:50:46;;;;;;;7.67;6.70;;;20.70;99.90;;;;;;5088757;28;20179;-81
2022/08/28 06:53:15;;;;;;;7.57;6.73;;;20.70;99.90;;;;;;5079988;28;20195;-81
2022/08/28 06:55:42;;;;;;;7.83;6.77;;;20.80;99.90;;;;;;5075815;28;20180;-81
2022/08/28 06:58:09;;;;;;;7.30;6.70;;;20.80;99.90;;;;;;5074388;28;20945;-80
2022/08/28 07:00:36;;;;;;;6.50;6.10;;;20.90;99.90;;;;;;5074188;28;20205;-81
2022/08/28 07:03:04;;;;;;;7.67;7.00;;;21.00;99.90;;;;;;5074003;28;20171;-81
2022/08/28 07:05:29;;;;;;;6.50;5.90;;;21.10;99.90;;;;;;5073119;28;20167;-81
2022/08/28 07:07:55;;;;;;;8.73;5.93;;;21.20;99.90;;;;;;5073389;28;20688;-80
2022/08/28 07:10:21;;;;;;;7.70;7.00;;;21.30;99.90;;;;;;5074458;28;20190;-81
2022/08/28 07:12:50;;;;;;;7.37;6.50;;;21.40;99.90;;;;;;5073660;28;20630;-81
2022/08/28 07:15:17;;;;;;;7.60;7.00;;;21.50;99.90;;;;;;5072225;28;20716;-81
2022/08/28 07:17:43;;;;;;;7.50;6.80;;;21.50;99.90;;;;;;5072176;28;20170;-82
2022/08/28 07:20:10;;;;;;;6.70;6.20;;;21.60;99.90;;;;;;5071598;28;20175;-82
2022/08/28 07:22:39;;;;;;;8.27;7.30;;;21.60;99.90;;;;;;5073577;28;20179;-80
2022/08/28 07:25:06;;;;;;;7.53;6.83;;;21.60;99.90;;;;;;5072259;28;20374;-81
2022/08/28 07:27:32;;;;;;;6.95;6.25;;;21.70;99.90;;;;;;5073435;28;20182;-81
2022/08/28 07:29:58;;;;;;;6.68;6.18;;;21.80;99.90;;;;;;5073109;28;20175;-81
2022/08/28 07:32:24;;;;;;;6.70;6.20;;;21.90;99.90;;;;;;5073198;28;20222;-81
2022/08/28 07:34:50;;;;;;;8.33;6.13;;;22.00;99.90;;;;;;5073279;28;20172;-81
2022/08/28 07:37:17;;;;;;;7.63;6.10;;;;;;;;;;5072666;28;20183;-82
2022/08/28 07:39:44;;;;;;;7.10;6.20;;;22.30;99.90;;;;;;5073148;28;20202;-82
2022/08/28 07:44:47;;;;;;;6.78;6.18;;;22.30;99.90;;;;;;5072977;28;20207;-81
2022/08/28 07:44:58;;;;;;;6.55;6.03;;;22.50;99.90;;;;;;5072829;28;20174;-81
2022/08/28 07:47:29;;;;;;;7.00;6.40;;;22.50;99.90;;;;;;5072980;28;20265;-81
2022/08/28 07:49:56;;;;;;;8.50;7.70;;;22.60;99.90;;;;;;5073294;28;20562;-82
2022/08/28 07:52:22;;;;;;;10.17;8.07;;;22.70;99.90;;;;;;5072837;28;20183;-80
2022/08/28 07:54:48;;;;;;;8.33;7.63;;;22.80;99.90;;;;;;5072969;28;20671;-80
2022/08/28 07:57:15;;;;;;;8.18;7.38;;;22.90;99.90;;;;;;5070975;28;20223;-81
2022/08/28 07:59:41;;;;;;;8.30;7.22;;;23.00;99.90;;;;;;5070378;28;20233;-80
2022/08/28 08:02:09;;;;;;;8.32;7.43;;;23.10;99.90;;;;;;5070363;28;20206;-80
2022/08/28 08:04:35;;;;;;;8.52;7.82;;;23.20;99.90;;;;;;5073537;28;20190;-80
2022/08/28 08:07:02;;;;;;;7.75;7.03;;;23.40;99.90;;;;;;5071503;28;20630;-80
2022/08/28 08:09:28;;;;;;;8.85;7.82;;;23.50;99.90;;;;;;5072509;28;20191;-80
2022/08/28 08:11:55;;;;;;;8.93;7.82;;;23.70;99.90;;;;;;5070706;28;20217;-80
2022/08/28 08:14:22;;;;;;;8.48;7.68;;;23.70;99.90;;;;;;5072229;28;20254;-80
2022/08/28 08:16:48;;;;;;;10.45;7.95;;;23.70;99.90;;;;;;5072316;28;20730;-80
2022/08/28 08:19:15;;;;;;;8.73;7.93;;;23.80;99.90;;;;;;5072376;28;20203;-80
2022/08/28 08:21:47;;;;;;;8.82;7.60;;;24.00;99.90;;;;;;5071775;28;20283;-80
2022/08/28 08:24:19;;;;;;;8.60;7.78;;;23.90;99.90;;;;;;5072615;28;20171;-80
2022/08/28 08:26:49;;;;;;;8.25;6.68;;;24.00;99.90;;;;;;5072362;28;20166;-80
2022/08/28 08:29:15;;;;;;;9.45;7.32;;;24.00;99.90;;;;;;5071440;28;20253;-80
2022/08/28 08:31:41;;;;;;;7.72;7.13;;;24.10;99.90;;;;;;5086983;28;20171;-80
2022/08/28 08:34:08;;;;;;;9.75;7.40;;;24.20;99.90;;;;;;5084512;28;20275;-81
2022/08/28 08:36:36;;;;;;;7.63;6.93;;;24.20;99.90;;;;;;5075006;28;20179;-81
2022/08/28 08:39:05;;;;;;;7.05;6.43;;;24.30;99.90;;;;;;5072224;28;20224;-80
2022/08/28 08:41:47;;;;;;;7.78;7.07;;;24.30;99.90;;;;;;5071636;28;20306;-80
2022/08/28 08:44:24;;;;;;;7.07;6.45;;;24.40;99.90;;;;;;5072129;28;20159;-79
2022/08/28 08:47:06;;;;;;;7.50;6.85;;;24.30;99.90;;;;;;5071794;28;20721;-82
2022/08/28 08:49:36;;;;;;;7.85;7.10;;;24.30;99.90;;;;;;5072043;28;20171;-81
2022/08/28 08:52:35;;;;;;;8.80;7.20;;;24.40;99.90;;;;;;5071925;28;20612;-81
2022/08/28 08:55:35;;;;;;;8.27;7.55;;;24.40;99.90;;;;;;5071356;28;20159;-82
2022/08/28 08:58:18;;;;;;;7.80;7.20;;;24.40;99.90;;;;;;5070834;28;20230;-80
2022/08/28 09:01:20;;;;;;;7.68;7.07;;;24.40;99.90;;;;;;5071270;28;20222;-80
2022/08/28 09:03:56;;;;;;;7.88;7.18;;;24.50;99.90;;;;;;5070082;28;20609;-80
2022/08/28 09:06:43;;;;;;;8.23;7.28;;;24.60;99.90;;;;;;5070871;28;20170;-80
2022/08/28 09:09:30;;;;;;;7.97;7.28;;;24.60;99.90;;;;;;5070764;28;20171;-80
2022/08/28 09:11:59;;;;;;;8.00;7.28;;;;;;;;;;5070977;28;20167;-81
2022/08/28 09:14:52;;;;;;;7.72;7.07;;;24.80;99.90;;;;;;5069792;28;20179;-81
2022/08/28 09:17:21;;;;;;;7.43;6.72;;;24.80;99.90;;;;;;5070717;28;20205;-81
2022/08/28 09:19:48;;;;;;;7.60;7.00;;;24.80;99.90;;;;;;5070701;28;20163;-81
2022/08/28 09:22:14;;;;;;;7.10;6.38;;;24.70;99.90;;;;;;5070614;28;20289;-81
2022/08/28 09:24:41;;;;;;;7.53;6.43;;;24.70;99.90;;;;;;5070346;28;20692;-82
2022/08/28 09:27:20;;;;;;;7.60;6.97;;;24.70;99.90;;;;;;5070511;28;20174;-80
2022/08/28 09:29:56;;;;;;;7.30;6.68;;;24.70;99.90;;;;;;5070452;28;20187;-81
2022/08/28 09:32:31;;;;;;;7.43;6.82;;;24.70;99.90;;;;;;5070330;28;20155;-81
2022/08/28 09:35:05;;;;;;;7.18;6.47;;;24.60;99.90;;;;;;5070555;28;20659;-81
2022/08/28 09:37:32;;;;;;;8.20;6.47;;;24.50;99.90;;;;;;5070487;28;20174;-81
2022/08/28 09:43:25;;;;;;;7.35;6.60;;;24.40;99.90;;;;;;5070617;28;20202;-80
2022/08/28 09:43:26;;;;;;;6.70;6.30;;;24.30;99.90;;;;;;5067851;28;20199;-81
2022/08/28 09:46:29;;;;;;;6.82;6.20;;;24.20;99.90;;;;;;5070720;28;20182;-81
2022/08/28 09:49:08;;;;;;;6.80;6.20;;;24.20;99.90;;;;;;5066635;28;20191;-81
2022/08/28 09:51:37;;;;;;;6.20;5.80;;;24.30;99.90;;;;;;5069631;28;20182;-80
2022/08/28 09:54:17;;;;;;;6.47;5.78;;;24.30;99.90;;;;;;5068174;28;20179;-80
2022/08/28 09:56:43;;;;;;;6.47;5.85;;;24.30;99.90;;;;;;5068426;28;20175;-80
2022/08/28 09:59:12;;;;;;;5.97;5.57;;;24.30;99.90;;;;;;5069461;28;20253;-80
2022/08/28 10:01:47;;;;;;;6.32;5.78;;;24.30;99.90;;;;;;5070532;28;20203;-79
2022/08/28 10:04:22;;;;;;;6.57;6.03;;;24.30;99.90;;;;;;5069653;28;20742;-79
2022/08/28 10:06:57;;;;;;;6.10;5.50;;;24.30;99.90;;;;;;5070095;28;20205;-80
2022/08/28 10:09:48;;;;;;;6.65;6.05;;;24.30;99.90;;;;;;5069611;28;20159;-80
2022/08/28 10:12:23;;;;;;;6.22;5.82;;;24.30;99.90;;;;;;5068785;28;20262;-80
2022/08/28 10:15:09;;;;;;;6.90;6.25;;;24.30;99.90;;;;;;5082312;28;20169;-80
2022/08/28 10:18:00;;;;;;;7.60;6.38;;;24.40;99.90;;;;;;5079612;28;20702;-80
2022/08/28 10:20:35;;;;;;;10.00;6.50;;;24.40;99.90;;;;;;5073021;28;20270;-80
2022/08/28 10:23:23;;;;;;;6.78;6.28;;;24.40;99.90;;;;;;5070535;28;20261;-80
2022/08/28 10:26:29;;;;;;;7.45;6.82;;;24.40;99.90;;;;;;5070391;28;20678;-81
2022/08/28 10:28:58;;;;;;;6.90;6.10;;;24.50;99.90;;;;;;5069864;28;20195;-81
2022/08/28 10:31:47;;;;;;;6.85;6.25;;;24.50;99.90;;;;;;5070533;28;20254;-80
2022/08/28 10:34:42;;;;;;;6.63;5.90;;;24.50;99.90;;;;;;5070396;28;20200;-80
2022/08/28 10:37:43;;;;;;;6.60;6.10;;;24.60;99.90;;;;;;5054260;28;20673;-80
2022/08/28 10:40:15;;;;;;;6.60;6.10;;;24.70;99.90;;;;;;5069811;28;20888;-80
2022/08/28 10:43:04;;;;;;;6.70;5.68;;;24.70;99.90;;;;;;5070227;28;20183;-80
2022/08/28 10:45:33;;;;;;;7.88;5.95;;;24.80;99.90;;;;;;5068843;28;20175;-80
2022/08/28 10:48:10;;;;;;;6.63;6.13;;;24.80;99.90;;;;;;5070002;28;20321;-81
2022/08/28 10:50:50;;;;;;;6.53;5.90;;;24.80;99.90;;;;;;5070286;28;20581;-80
2022/08/28 10:53:26;;;;;;;6.28;5.60;;;24.90;99.90;;;;;;5069610;28;20190;-81
2022/08/28 10:55:58;;;;;;;5.85;5.45;;;24.90;99.90;;;;;;5069833;28;20643;-81
2022/08/28 10:58:26;;;;;;;5.88;5.47;;;25.00;99.90;;;;;;5069315;28;20284;-82
2022/08/28 11:00:55;;;;;;;6.00;5.50;;;25.00;99.90;;;;;;5070021;28;20203;-80
2022/08/28 11:03:24;;;;;;;5.88;5.47;;;25.10;99.90;;;;;;5070000;28;20206;-80
2022/08/28 11:06:10;;;;;;;6.88;5.93;;;25.10;99.90;;;;;;5069559;28;20258;-83
2022/08/28 11:08:38;;;;;;;5.80;5.30;;;25.10;99.90;;;;;;5069880;28;20178;-84
2022/08/28 11:11:12;;;;;;;6.38;5.80;;;25.10;99.90;;;;;;5069938;28;20171;-82
2022/08/28 11:13:57;;;;;;;6.22;5.72;;;25.10;99.90;;;;;;5069409;28;20274;-81
2022/08/28 11:16:34;;;;;;;6.22;5.63;;;25.20;99.90;;;;;;5070092;28;20373;-82
2022/08/28 11:19:05;;;;;;;6.55;6.00;;;25.30;99.90;;;;;;5068853;28;20186;-81
2022/08/28 11:21:39;;;;;;;5.75;5.28;;;25.30;99.90;;;;;;5068604;28;20321;-81
2022/08/28 11:24:10;;;;;;;6.15;5.72;;;25.40;99.90;;;;;;5068515;28;20186;-84
2022/08/28 11:26:46;;;;;;;5.72;5.25;;;25.40;99.90;;;;;;5071680;28;20615;-81
2022/08/28 11:29:50;;;;;;;5.53;5.18;;;25.40;99.90;;;;;;5074601;28;20228;-83
2022/08/28 11:32:51;;;;;;;5.88;5.15;;;25.50;99.90;;;;;;5073567;28;20677;-80
2022/08/28 11:35:20;;;;;;;5.70;5.28;;;25.60;99.90;;;;;;5073283;28;20195;-82
2022/08/28 11:37:51;;;;;;;6.45;5.93;;;25.70;99.90;;;;;;5073889;28;20175;-82
2022/08/28 11:40:31;;;;;;;5.93;5.47;;;25.70;99.90;;;;;;5074398;28;20168;-83
2022/08/28 11:43:14;;;;;;;6.00;5.38;;;25.70;99.90;;;;;;5074201;28;20258;-83
2022/08/28 11:45:49;;;;;;;6.90;5.88;;;25.70;99.90;;;;;;5072097;28;20214;-82
2022/08/28 11:48:36;;;;;;;5.72;5.22;;;25.60;99.90;;;;;;5072646;28;20185;-81
2022/08/28 11:51:12;;;;;;;5.40;5.00;;;25.50;99.90;;;;;;5073438;28;20210;-80
2022/08/28 11:53:54;;;;;;;5.05;4.75;;;25.60;99.90;;;;;;5071243;28;20811;-80
2022/08/28 11:56:41;;;;;;;5.45;4.93;;;25.60;99.90;;;;;;5073385;28;20178;-80
2022/08/28 11:59:24;;;;;;;12.55;11.38;;;25.60;99.90;;;;;;5080448;28;20214;-80
2022/08/28 12:01:50;;;;;;;5.82;5.30;;;25.60;99.90;;;;;;5082142;28;20734;-81
2022/08/28 12:04:22;;;;;;;5.55;5.15;;;25.60;99.90;;;;;;5074972;28;20188;-81
2022/08/28 12:06:51;;;;;;;5.47;5.07;;;25.70;99.90;;;;;;5073098;28;20182;-82
2022/08/28 12:09:38;;;;;;;5.35;4.80;;;25.80;99.90;;;;;;5073673;28;20159;-83
2022/08/28 12:12:08;;;;;;;5.20;4.80;;;26.00;99.90;;;;;;5073606;28;20175;-83
2022/08/28 12:14:39;;;;;;;6.00;5.38;;;26.10;99.90;;;;;;5072785;28;20195;-81
2022/08/28 12:17:20;;;;;;;5.70;5.20;;;26.20;99.90;;;;;;5072785;28;20187;-82
2022/08/28 12:20:30;;;;;;;5.13;4.55;;;26.20;99.90;;;;;;5073080;28;20164;-80
2022/08/28 12:22:59;;;;;;;5.70;5.07;;;26.20;99.90;;;;;;5066980;28;20267;-80
2022/08/28 12:25:40;;;;;;;4.80;4.45;;;26.30;99.90;;;;;;5073033;28;20193;-82
2022/08/28 12:28:42;;;;;;;5.38;4.90;;;26.20;99.90;;;;;;5072910;28;20159;-82
2022/08/28 12:34:36;;;;;;;5.20;4.63;;;26.00;99.90;;;;;;5073184;28;20254;-80
2022/08/28 12:37:04;;;;;;;5.00;4.63;;;25.90;99.90;;;;;;5071134;28;20189;-79
2022/08/28 12:39:32;;;;;;;5.15;4.75;;;25.90;99.90;;;;;;5071169;28;20171;-79
2022/08/28 12:42:00;;;;;;;4.97;4.50;;;26.00;99.90;;;;;;5072073;28;20692;-79
2022/08/28 12:44:29;;;;;;;7.53;5.05;;;26.20;99.90;;;;;;5072864;28;20173;-80
2022/08/28 12:46:55;;;;;;;7.20;4.60;;;26.30;99.90;;;;;;5072022;28;20236;-78
2022/08/28 12:49:34;;;;;;;4.95;4.55;;;26.30;99.90;;;;;;5070634;28;20179;-79
2022/08/28 12:52:16;;;;;;;5.00;4.60;;;26.40;99.90;;;;;;5072045;28;20721;-80
2022/08/28 12:54:43;;;;;;;7.70;5.85;;;26.40;99.90;;;;;;5070343;28;20312;-79
2022/08/28 12:57:13;;;;;;;5.85;5.40;;;26.50;99.90;;;;;;5070578;28;20317;-78
2022/08/28 12:59:42;;;;;;;5.38;4.82;;;26.60;99.90;;;;;;5070992;28;20179;-80
2022/08/28 13:02:26;;;;;;;5.82;5.28;;;26.80;99.90;;;;;;5071645;28;20202;-81
2022/08/28 13:05:02;;;;;;;5.38;4.97;;;26.90;99.90;;;;;;5071597;28;20526;-80
2022/08/28 13:07:48;;;;;;;5.53;5.05;;;26.90;99.90;;;;;;5071577;28;20792;-82
2022/08/28 13:10:21;;;;;;;5.05;4.50;;;26.80;99.90;;;;;;5072108;28;20254;-81